Time;durP1;ratioP1;P1;durP2;ratioP2;P2;SDS_P1;SDS_P2;PMS_P1;PMS_P2;Temp;Humidity;BMP_temperature;BMP_pressure;BME280_temperature;BME280_humidity;BME280_pressure;Samples;Min_cycle;Max_cycle;Signal;HPM_P1;HPM_P2
2022/10/30 00:01:00;;;;;;;7.17;5.80;;;;;;;10.27;100.00;96876.72;5072412;27;104324;-63
2022/10/30 00:03:27;;;;;;;7.43;4.73;;;;;;;10.19;100.00;96877.88;5071914;27;101830;-63
2022/10/30 00:05:55;;;;;;;11.00;5.33;;;;;;;10.23;100.00;96879.03;5071800;27;105021;-63
2022/10/30 00:08:25;;;;;;;5.00;4.10;;;;;;;10.29;100.00;96874.63;5071094;27;105438;-63
2022/10/30 00:10:52;;;;;;;7.90;4.47;;;;;;;10.10;100.00;96867.88;5071771;27;101801;-63
2022/10/30 00:13:21;;;;;;;5.80;4.77;;;;;;;10.15;100.00;96868.75;5071528;27;104365;-63
2022/10/30 00:15:51;;;;;;;6.33;4.73;;;;;;;10.24;100.00;96867.34;5074270;27;106137;-63
2022/10/30 00:18:19;;;;;;;6.73;5.20;;;;;;;10.30;100.00;96873.59;5071608;27;105199;-64
2022/10/30 00:20:47;;;;;;;6.23;5.17;;;;;;;10.32;100.00;96867.00;5070902;27;105478;-63
2022/10/30 00:23:14;;;;;;;5.47;4.97;;;;;;;10.20;100.00;96862.75;5071571;27;101907;-63
2022/10/30 00:25:43;;;;;;;7.20;4.80;;;;;;;10.08;100.00;96868.09;5071289;27;103828;-63
2022/10/30 00:28:10;;;;;;;6.67;4.90;;;;;;;10.08;100.00;96869.97;5070655;27;105413;-64
2022/10/30 00:30:38;;;;;;;8.27;4.93;;;;;;;10.06;100.00;96866.72;5071380;27;101960;-63
2022/10/30 00:33:06;;;;;;;7.20;5.63;;;;;;;10.01;100.00;96867.41;5071518;27;103908;-63
2022/10/30 00:35:34;;;;;;;7.57;5.60;;;;;;;9.91;100.00;96859.22;5070801;27;103845;-63
2022/10/30 00:38:02;;;;;;;8.73;6.30;;;;;;;9.97;100.00;96854.84;5074754;27;101730;-63
2022/10/30 00:40:29;;;;;;;12.43;8.10;;;;;;;9.97;100.00;96860.16;5070598;27;104931;-63
2022/10/30 00:42:58;;;;;;;11.77;8.27;;;;;;;10.01;100.00;96867.41;5071009;27;101992;-63
2022/10/30 00:45:25;;;;;;;10.77;8.17;;;;;;;9.91;100.00;96861.06;5071142;27;105262;-63
2022/10/30 00:47:56;;;;;;;12.57;8.30;;;;;;;9.96;100.00;96855.84;5069804;27;105735;-63
2022/10/30 00:50:26;;;;;;;9.20;7.23;;;;;;;9.91;100.00;96863.72;5071116;27;102008;-63
2022/10/30 00:52:58;;;;;;;9.13;6.17;;;;;;;9.87;100.00;96859.94;5071006;27;105496;-63
2022/10/30 00:55:30;;;;;;;9.77;7.23;;;;;;;9.79;100.00;96855.78;5070441;27;105697;-63
2022/10/30 00:58:01;;;;;;;10.30;7.70;;;;;;;9.89;100.00;96857.84;5074417;27;101813;-63
2022/10/30 01:00:30;;;;;;;9.03;6.83;;;;;;;9.92;100.00;96860.81;5070451;27;105103;-63
2022/10/30 01:02:58;;;;;;;9.90;7.10;;;;;;;9.87;100.00;96855.41;5070944;27;101957;-63
2022/10/30 01:05:30;;;;;;;10.77;7.17;;;;;;;9.89;100.00;96852.53;5070957;27;105716;-63
2022/10/30 01:07:57;;;;;;;11.03;6.77;;;;;;;9.75;100.00;96859.16;5070104;27;105364;-63
2022/10/30 01:10:25;;;;;;;10.57;6.80;;;;;;;9.84;100.00;96852.41;5070987;27;101921;-63
2022/10/30 01:12:55;;;;;;;10.03;6.50;;;;;;;9.72;100.00;96851.63;5070742;27;105493;-63
2022/10/30 01:15:29;;;;;;;8.57;6.57;;;;;;;9.79;100.00;96853.13;5069852;27;105246;-63
2022/10/30 01:18:21;;;;;;;9.53;6.30;;;;;;;9.72;100.00;96847.16;5070666;27;101855;-64
2022/10/30 01:21:07;;;;;;;10.70;6.27;;;;;;;9.63;100.00;96847.72;5073598;27;105649;-63
2022/10/30 01:23:42;;;;;;;8.10;5.10;;;;;;;9.66;100.00;96852.56;5070374;27;101851;-63
2022/10/30 01:26:19;;;;;;;9.93;5.87;;;;;;;9.71;100.00;96850.03;5070625;27;104112;-63
2022/10/30 01:29:15;;;;;;;7.67;5.80;;;;;;;9.61;100.00;96842.66;5069972;27;105116;-63
2022/10/30 01:31:56;;;;;;;6.87;5.07;;;;;;;9.64;100.00;96844.00;5072140;27;101651;-63
2022/10/30 01:34:31;;;;;;;7.47;5.53;;;;;;;9.54;100.00;96843.81;5070427;27;105215;-63
2022/10/30 01:37:04;;;;;;;6.97;5.27;;;;;;;9.53;100.00;96843.00;5068926;27;106356;-64
2022/10/30 01:39:34;;;;;;;7.57;5.47;;;;;;;9.51;100.00;96838.97;5070286;27;101854;-63
2022/10/30 01:42:09;;;;;;;8.07;5.50;;;;;;;9.49;100.00;96838.41;5070107;27;104840;-63
2022/10/30 01:44:37;;;;;;;8.20;4.87;;;;;;;9.43;100.00;96834.81;5073247;27;104992;-63
2022/10/30 01:47:23;;;;;;;6.23;4.80;;;;;;;9.50;100.00;96840.81;5069931;27;105135;-63
2022/10/30 01:50:16;;;;;;;8.80;4.70;;;;;;;9.52;100.00;96835.25;5069065;27;105481;-63
2022/10/30 01:52:51;;;;;;;6.93;5.30;;;;;;;9.54;100.00;96835.84;5061578;27;102040;-63
2022/10/30 01:55:31;;;;;;;6.67;4.60;;;;;;;9.58;100.00;96831.66;5070065;27;104747;-63
2022/10/30 01:58:06;;;;;;;6.87;4.80;;;;;;;9.50;100.00;96830.22;5069749;27;103704;-63
2022/10/30 02:00:35;;;;;;;6.93;4.60;;;;;;;9.49;100.00;96835.75;5069767;27;101962;-64
2022/10/30 02:03:05;;;;;;;6.90;4.53;;;;;;;9.51;100.00;96826.50;5070129;27;105378;-63
2022/10/30 02:05:38;;;;;;;9.27;5.30;;;;;;;9.53;100.00;96831.56;5069359;27;105630;-63
2022/10/30 02:08:06;;;;;;;9.50;5.27;;;;;;;9.60;100.00;96827.75;5073428;27;101852;-63
2022/10/30 02:10:38;;;;;;;7.13;4.47;;;;;;;9.59;100.00;96830.66;5069121;27;103789;-63
2022/10/30 02:13:05;;;;;;;8.00;4.63;;;;;;;9.62;100.00;96828.34;5069881;27;101996;-63
2022/10/30 02:15:34;;;;;;;5.90;4.73;;;;;;;9.52;100.00;96820.16;5069784;27;105194;-63
2022/10/30 02:18:01;;;;;;;7.73;4.27;;;;;;;9.48;100.00;96826.16;5069103;27;105120;-63
2022/10/30 02:20:31;;;;;;;6.07;4.40;;;;;;;9.37;100.00;96821.69;5069780;27;101963;-63
2022/10/30 02:22:59;;;;;;;7.40;4.73;;;;;;;9.42;100.00;96824.41;5069602;27;105183;-63
2022/10/30 02:25:30;;;;;;;5.13;4.53;;;;;;;9.38;100.00;96828.59;5069091;27;104924;-63
2022/10/30 02:27:58;;;;;;;5.50;4.50;;;;;;;9.41;100.00;96815.66;5069627;27;102146;-63
2022/10/30 02:30:27;;;;;;;6.70;4.13;;;;;;;9.26;100.00;96822.50;5072487;27;104988;-63
2022/10/30 02:32:54;;;;;;;5.50;4.80;;;;;;;9.28;100.00;96825.72;5069642;27;101851;-63
2022/10/30 02:35:22;;;;;;;4.70;4.27;;;;;;;9.13;100.00;96830.66;5069309;27;105016;-63
2022/10/30 02:37:52;;;;;;;6.13;4.03;;;;;;;9.16;100.00;96819.59;5068741;27;105346;-63
2022/10/30 02:40:19;;;;;;;6.63;4.20;;;;;;;9.15;100.00;96824.09;5069510;27;101918;-63
2022/10/30 02:42:52;;;;;;;4.20;3.80;;;;;;;9.22;100.00;96818.69;5069171;27;105158;-63
2022/10/30 02:45:20;;;;;;;4.97;4.00;;;;;;;9.12;100.00;96818.44;5068671;27;104999;-63
2022/10/30 02:47:48;;;;;;;5.00;4.10;;;;;;;9.17;100.00;96818.56;5068698;27;101919;-63
2022/10/30 02:50:15;;;;;;;5.70;4.10;;;;;;;9.09;100.00;96813.56;5071050;27;104982;-63
2022/10/30 02:52:43;;;;;;;6.23;4.20;;;;;;;9.18;100.00;96809.56;5075859;27;101971;-63
2022/10/30 02:55:12;;;;;;;5.40;3.70;;;;;;;9.06;100.00;96814.06;5056207;27;105593;-63
2022/10/30 02:57:39;;;;;;;5.87;3.77;;;;;;;9.10;100.00;96810.69;5071941;27;103924;-63
2022/10/30 03:00:07;;;;;;;5.80;3.80;;;;;;;9.09;100.00;96810.94;5072926;27;102440;-63
2022/10/30 03:02:35;;;;;;;5.23;4.10;;;;;;;9.09;100.00;96811.75;5072896;27;104862;-63
2022/10/30 03:05:01;;;;;;;7.23;4.63;;;;;;;8.92;100.00;96802.03;5072381;27;104994;-63
2022/10/30 03:07:29;;;;;;;6.17;4.00;;;;;;;9.01;100.00;96805.97;5072807;27;101865;-63
2022/10/30 03:09:56;;;;;;;4.33;3.47;;;;;;;8.97;100.00;96805.63;5073147;27;105186;-63
2022/10/30 03:12:25;;;;;;;5.73;4.20;;;;;;;9.05;100.00;96817.75;5075339;27;105213;-63
2022/10/30 03:14:52;;;;;;;7.10;4.57;;;;;;;8.99;100.00;96813.38;5072811;27;105500;-63
2022/10/30 03:17:20;;;;;;;5.37;4.17;;;;;;;8.94;100.00;96810.59;5071822;27;105242;-63
2022/10/30 03:19:48;;;;;;;8.63;4.60;;;;;;;9.04;100.00;96813.47;5072474;27;101808;-63
2022/10/30 03:22:15;;;;;;;5.53;3.93;;;;;;;8.99;100.00;96819.47;5072434;27;105278;-63
2022/10/30 03:24:43;;;;;;;6.10;4.13;;;;;;;8.94;100.00;96810.59;5071735;27;105300;-63
2022/10/30 03:27:10;;;;;;;7.87;4.63;;;;;;;9.01;100.00;96819.25;5072474;27;101870;-63
2022/10/30 03:29:41;;;;;;;7.80;4.20;;;;;;;9.06;100.00;96820.16;5072518;27;106002;-63
2022/10/30 03:32:10;;;;;;;5.83;4.00;;;;;;;9.01;100.00;96819.25;5071840;27;105283;-63
2022/10/30 03:34:45;;;;;;;6.47;4.20;;;;;;;8.91;100.00;96816.34;5075764;27;101858;-63
2022/10/30 03:37:12;;;;;;;5.63;3.90;;;;;;;8.98;100.00;96817.03;5071503;27;105190;-63
2022/10/30 03:39:39;;;;;;;4.17;3.73;;;;;;;8.95;100.00;96820.94;5072189;27;102061;-63
2022/10/30 03:42:06;;;;;;;5.73;4.17;;;;;;;8.87;100.00;96820.47;5071924;27;106104;-63
2022/10/30 03:44:34;;;;;;;4.17;3.63;;;;;;;8.90;100.00;96814.75;5071650;27;104209;-63
2022/10/30 03:47:04;;;;;;;8.57;4.60;;;;;;;8.95;100.00;96822.81;5071955;27;101974;-63
2022/10/30 03:49:39;;;;;;;7.90;4.10;;;;;;;8.80;100.00;96817.13;5072151;27;105231;-63
2022/10/30 03:52:10;;;;;;;9.27;5.10;;;;;;;8.84;100.00;96823.59;5071433;27;103606;-63
2022/10/30 03:54:38;;;;;;;6.67;4.20;;;;;;;8.84;100.00;96826.25;5072265;27;101867;-63
2022/10/30 03:57:05;;;;;;;8.27;4.20;;;;;;;8.83;100.00;96830.75;5074574;27;105189;-63
2022/10/30 03:59:42;;;;;;;5.63;4.50;;;;;;;8.89;100.00;96824.53;5072107;27;101889;-63
2022/10/30 04:02:36;;;;;;;4.80;3.83;;;;;;;8.88;100.00;96832.72;5064745;27;102282;-63
2022/10/30 04:05:05;;;;;;;5.90;4.33;;;;;;;8.78;100.00;96825.31;5071201;27;105064;-63
2022/10/30 04:07:32;;;;;;;7.60;4.10;;;;;;;8.75;100.00;96836.41;5071868;27;101986;-63
2022/10/30 04:09:59;;;;;;;5.20;4.30;;;;;;;8.76;100.00;96840.66;5071702;27;105032;-63
2022/10/30 04:12:28;;;;;;;9.50;5.10;;;;;;;8.91;100.00;96832.25;5071177;27;105127;-63
2022/10/30 04:14:56;;;;;;;7.20;5.20;;;;;;;8.94;100.00;96842.44;5071587;27;101891;-63
2022/10/30 04:17:23;;;;;;;8.87;4.90;;;;;;;9.04;100.00;96842.63;5071562;27;104939;-63
2022/10/30 04:19:52;;;;;;;6.83;4.80;;;;;;;8.93;100.00;96840.78;5074467;27;105775;-63
2022/10/30 04:22:19;;;;;;;5.93;4.23;;;;;;;8.99;100.00;96845.19;5071581;27;105432;-63
2022/10/30 04:24:48;;;;;;;5.00;4.50;;;;;;;8.94;100.00;96842.44;5070699;27;105203;-63
2022/10/30 04:27:15;;;;;;;7.80;4.50;;;;;;;8.97;100.00;96836.66;5071452;27;101936;-63
2022/10/30 04:29:42;;;;;;;5.77;4.63;;;;;;;8.97;100.00;96842.78;5071373;27;105213;-63
2022/10/30 04:32:09;;;;;;;8.07;5.27;;;;;;;8.89;100.00;96839.66;5070757;27;106108;-63
2022/10/30 04:34:38;;;;;;;7.63;4.83;;;;;;;8.81;100.00;96847.91;5071432;27;101847;-63
2022/10/30 04:37:07;;;;;;;10.53;4.50;;;;;;;8.93;100.00;96849.56;5071153;27;105317;-63
2022/10/30 04:39:35;;;;;;;7.70;4.47;;;;;;;8.95;100.00;96844.81;5070760;27;105107;-63
2022/10/30 04:42:12;;;;;;;8.73;4.43;;;;;;;8.90;100.00;96838.59;5074587;27;101774;-63
2022/10/30 04:44:40;;;;;;;8.73;4.33;;;;;;;8.77;100.00;96841.47;5070623;27;105431;-63
2022/10/30 04:47:08;;;;;;;5.47;3.97;;;;;;;8.73;100.00;96837.66;5071157;27;102012;-63
2022/10/30 04:49:37;;;;;;;5.00;3.77;;;;;;;8.63;100.00;96837.41;5070683;27;105250;-63
2022/10/30 04:52:04;;;;;;;6.80;4.20;;;;;;;8.43;100.00;96844.81;5070614;27;105782;-63
2022/10/30 04:54:35;;;;;;;6.70;4.07;;;;;;;8.24;100.00;96827.38;5071237;27;101786;-63
2022/10/30 04:57:03;;;;;;;6.27;4.07;;;;;;;8.30;100.00;96829.91;5071042;27;104810;-64
2022/10/30 04:59:30;;;;;;;7.00;3.80;;;;;;;8.20;100.00;96834.97;5070500;27;105512;-63
2022/10/30 05:01:57;;;;;;;5.40;4.43;;;;;;;8.24;100.00;96830.81;5074136;27;101737;-63
2022/10/30 05:04:25;;;;;;;6.87;4.23;;;;;;;8.25;100.00;96832.44;5070322;27;105229;-63
2022/10/30 05:06:54;;;;;;;5.70;4.43;;;;;;;8.23;100.00;96829.19;5070830;27;101880;-63
2022/10/30 05:09:22;;;;;;;8.77;4.77;;;;;;;8.28;100.00;96823.25;5070912;27;104795;-63
2022/10/30 05:11:50;;;;;;;8.30;4.30;;;;;;;8.16;100.00;96819.69;5069478;27;105868;-63
2022/10/30 05:14:17;;;;;;;5.87;4.60;;;;;;;8.25;100.00;96815.75;5070394;27;101936;-64
2022/10/30 05:16:47;;;;;;;7.63;4.73;;;;;;;8.19;100.00;96814.75;5070382;27;104829;-63
2022/10/30 05:19:14;;;;;;;7.27;3.80;;;;;;;8.22;100.00;96817.00;5070014;27;105205;-63
2022/10/30 05:21:47;;;;;;;4.63;3.93;;;;;;;8.27;100.00;96814.47;5070551;27;101809;-63
2022/10/30 05:24:14;;;;;;;7.47;4.07;;;;;;;8.28;100.00;96810.00;5073358;27;104859;-64
2022/10/30 05:26:45;;;;;;;8.93;4.53;;;;;;;8.34;100.00;96815.19;5070489;27;101800;-63
2022/10/30 05:29:14;;;;;;;7.13;4.60;;;;;;;8.40;100.00;96814.28;5070674;27;104840;-63
2022/10/30 05:31:41;;;;;;;9.83;4.70;;;;;;;8.42;100.00;96806.94;5069842;27;105227;-63
2022/10/30 05:34:17;;;;;;;8.03;4.47;;;;;;;8.48;100.00;96815.81;5068624;27;101896;-63
2022/10/30 05:36:46;;;;;;;8.03;4.47;;;;;;;8.26;100.00;96812.03;5053348;27;105229;-63
2022/10/30 05:39:14;;;;;;;5.10;4.40;;;;;;;8.24;100.00;96814.13;5069720;27;105169;-64
2022/10/30 05:41:45;;;;;;;7.37;4.77;;;;;;;8.24;100.00;96814.13;5070310;27;101822;-63
2022/10/30 05:44:15;;;;;;;8.93;4.63;;;;;;;8.28;100.00;96815.31;5070214;27;105135;-63
2022/10/30 05:46:45;;;;;;;11.43;6.70;;;;;;;8.36;100.00;96825.56;5073142;27;105658;-63
2022/10/30 05:49:22;;;;;;;6.80;5.47;;;;;;;8.39;100.00;96828.56;5069590;27;105166;-63
2022/10/30 05:51:49;;;;;;;9.37;5.47;;;;;;;8.44;100.00;96830.53;5069438;27;105536;-63
2022/10/30 05:54:17;;;;;;;8.67;5.60;;;;;;;8.46;100.00;96839.09;5070347;27;102122;-63
2022/10/30 05:56:58;;;;;;;7.40;5.43;;;;;;;8.47;100.00;96838.03;5069771;27;104510;-63
2022/10/30 05:59:27;;;;;;;7.17;5.67;;;;;;;8.44;100.00;96841.13;5069217;27;105260;-63
2022/10/30 06:02:09;;;;;;;8.13;5.90;;;;;;;8.40;100.00;96835.47;5069918;27;101983;-63
2022/10/30 06:04:37;;;;;;;7.50;5.63;;;;;;;8.47;100.00;96830.09;4991146;28;105336;-63
2022/10/30 06:07:11;;;;;;;8.60;4.87;;;;;;;8.40;100.00;96842.63;4990662;28;105121;-63
2022/10/30 06:09:37;;;;;;;7.27;5.23;;;;;;;8.43;100.00;96844.81;4994618;28;101902;-64
2022/10/30 06:12:23;;;;;;;10.10;4.90;;;;;;;8.43;100.00;96843.00;5007746;28;102238;-63
2022/10/30 06:15:11;;;;;;;7.53;5.20;;;;;;;8.52;100.00;96835.53;5005198;28;101834;-63
2022/10/30 06:17:39;;;;;;;6.80;4.90;;;;;;;8.56;100.00;96834.03;4991212;28;105053;-63
2022/10/30 06:20:15;;;;;;;11.40;5.50;;;;;;;8.51;100.00;96839.22;4990714;28;105457;-64
2022/10/30 06:23:04;;;;;;;7.90;4.93;;;;;;;8.54;100.00;96836.09;5007134;28;101818;-63
2022/10/30 06:25:43;;;;;;;7.57;5.03;;;;;;;8.50;100.00;96841.03;4991316;28;104911;-63
2022/10/30 06:28:14;;;;;;;5.90;4.43;;;;;;;8.52;100.00;96840.81;5006896;28;102701;-63
2022/10/30 06:30:44;;;;;;;5.83;4.93;;;;;;;8.57;100.00;96836.44;4991344;28;101948;-63
2022/10/30 06:33:12;;;;;;;5.50;4.20;;;;;;;8.63;100.00;96840.88;4993863;28;104809;-63
2022/10/30 06:35:44;;;;;;;7.90;5.80;;;;;;;8.74;100.00;96844.56;4990920;28;101865;-64
2022/10/30 06:38:14;;;;;;;9.77;5.37;;;;;;;8.77;100.00;96836.97;4990947;28;104808;-63
2022/10/30 06:40:42;;;;;;;6.93;5.13;;;;;;;8.85;100.00;96849.09;4991076;27;105320;-63
2022/10/30 06:43:26;;;;;;;7.53;4.87;;;;;;;9.09;100.00;96840.09;5069072;27;101923;-63
2022/10/30 06:45:59;;;;;;;8.80;5.73;;;;;;;9.18;100.00;96844.88;5069404;27;105485;-64
2022/10/30 06:48:27;;;;;;;10.97;6.90;;;;;;;9.36;100.00;96847.41;5068271;27;105013;-63
2022/10/30 06:50:56;;;;;;;9.00;6.47;;;;;;;9.47;100.00;96843.09;5069510;27;101910;-63
2022/10/30 06:53:24;;;;;;;11.07;5.87;;;;;;;9.54;100.00;96854.44;5068963;27;105265;-63
2022/10/30 06:55:56;;;;;;;9.53;5.67;;;;;;;9.66;100.00;96848.06;5072196;27;104878;-63
2022/10/30 06:58:41;;;;;;;7.47;6.07;;;;;;;9.79;100.00;96853.13;5069031;27;104883;-63
2022/10/30 07:01:13;;;;;;;7.97;5.33;;;;;;;9.89;100.00;96856.00;5068811;27;103688;-63
2022/10/30 07:03:58;;;;;;;9.43;5.63;;;;;;;10.04;100.00;96847.56;5067549;27;101887;-63
2022/10/30 07:06:26;;;;;;;9.43;5.83;;;;;;;10.12;100.00;96852.50;5069189;27;105249;-63
2022/10/30 07:08:54;;;;;;;10.83;7.23;;;;;;;10.26;100.00;96846.66;5068457;27;105324;-63
2022/10/30 07:11:21;;;;;;;10.03;7.37;;;;;;;10.38;100.00;96849.28;5069106;27;102420;-64
2022/10/30 07:14:17;;;;;;;7.60;6.37;;;;;;;10.53;100.00;96842.38;5060115;27;102529;-63
2022/10/30 07:17:12;;;;;;;11.40;6.83;;;;;;;10.71;100.00;96844.84;5071729;27;105546;-63
2022/10/30 07:19:41;;;;;;;10.13;6.67;;;;;;;10.85;100.00;96848.00;5068972;27;105354;-63
2022/10/30 07:22:07;;;;;;;15.23;7.40;;;;;;;10.92;100.00;96846.81;5068424;27;105039;-63
2022/10/30 07:24:37;;;;;;;9.83;7.43;;;;;;;11.09;100.00;96838.81;5068873;27;102319;-64
2022/10/30 07:27:09;;;;;;;9.23;7.10;;;;;;;11.25;100.00;96838.00;5067010;27;102358;-63
2022/10/30 07:30:02;;;;;;;11.77;6.93;;;;;;;11.42;100.00;96842.28;5067360;27;102707;-63
2022/10/30 07:32:42;;;;;;;10.60;6.63;;;;;;;11.59;100.00;96847.59;5068885;27;101882;-63
2022/10/30 07:35:33;;;;;;;8.10;5.87;;;;;;;11.74;100.00;96843.28;5069084;27;104880;-63
2022/10/30 07:38:19;;;;;;;10.00;6.27;;;;;;;11.86;100.00;96845.81;5070063;27;102255;-63
2022/10/30 07:40:53;;;;;;;9.07;5.97;;;;;;;12.06;100.00;96848.75;5075706;27;101996;-64
2022/10/30 07:43:56;;;;;;;8.47;5.87;;;;;;;12.21;100.00;96849.72;5060053;27;103484;-63
2022/10/30 07:46:35;;;;;;;8.83;5.97;;;;;;;12.42;100.00;96845.44;5071911;27;101831;-63
2022/10/30 07:49:22;;;;;;;9.10;5.83;;;;;;;12.62;100.00;96842.97;5073610;27;102040;-64
2022/10/30 07:51:53;;;;;;;11.20;5.57;;;;;;;12.73;100.00;96840.16;5071493;27;105644;-64
2022/10/30 07:54:21;;;;;;;8.97;5.30;;;;;;;12.96;100.00;96844.38;5072233;27;101843;-64
2022/10/30 07:56:48;;;;;;;10.27;6.17;;;;;;;13.08;100.00;96842.38;5072044;27;104965;-64
2022/10/30 07:59:16;;;;;;;12.10;5.17;;;;;;;13.25;100.00;96840.38;5072691;27;102369;-64
2022/10/30 08:02:12;;;;;;;8.40;4.90;;;;;;;13.40;100.00;96837.81;5058946;27;102134;-64
2022/10/30 08:05:04;;;;;;;9.07;5.60;;;;;;;13.54;100.00;96845.13;5075903;27;103933;-64
2022/10/30 08:07:42;;;;;;;8.50;4.63;;;;;;;13.60;100.00;96848.63;5071738;27;101954;-64
2022/10/30 08:10:10;;;;;;;6.63;4.47;;;;;;;13.70;100.00;96841.50;5071661;27;104745;-64
2022/10/30 08:12:39;;;;;;;8.23;4.93;;;;;;;13.84;100.00;96839.16;5071121;27;105169;-64
2022/10/30 08:15:06;;;;;;;6.83;4.47;;;;;;;14.05;100.00;96843.50;5071646;27;101917;-65
2022/10/30 08:17:41;;;;;;;7.70;4.40;;;;;;;14.30;100.00;96838.31;5071455;27;105385;-64
2022/10/30 08:20:12;;;;;;;7.47;4.43;;;;;;;14.55;100.00;96825.00;5071023;27;105690;-65
2022/10/30 08:22:47;;;;;;;9.37;4.77;;;;;;;14.75;100.00;96825.03;5071283;27;101921;-65
2022/10/30 08:25:15;;;;;;;7.33;4.50;;;;;;;14.78;100.00;96824.50;5071654;27;104731;-65
2022/10/30 08:27:51;;;;;;;9.03;4.40;;;;;;;14.92;100.00;96822.91;5074329;27;105800;-65
2022/10/30 08:30:18;;;;;;;9.53;4.43;;;;;;;15.03;100.00;96819.97;5071425;27;105109;-65
2022/10/30 08:32:46;;;;;;;6.03;3.80;;;;;;;15.20;100.00;96811.69;5070867;27;105118;-65
2022/10/30 08:35:34;;;;;;;9.70;4.43;;;;;;;15.28;100.00;96817.31;5069802;27;101748;-65
2022/10/30 08:38:02;;;;;;;10.97;4.30;;;;;;;15.33;100.00;96813.84;5071037;27;105825;-65
2022/10/30 08:40:30;;;;;;;9.60;4.07;;;;;;;15.44;100.00;96818.13;5070707;27;105085;-65
2022/10/30 08:43:06;;;;;;;7.60;3.90;;;;;;;15.60;100.00;96817.81;5070824;27;101878;-65
2022/10/30 08:45:33;;;;;;;8.00;3.77;;;;;;;15.87;100.00;96812.13;5071198;27;104933;-65
2022/10/30 08:48:06;;;;;;;9.60;4.20;;;;;;;16.12;100.00;96812.00;5070551;27;105166;-65
2022/10/30 08:50:40;;;;;;;6.83;3.33;;;;;;;16.35;100.00;96812.19;5074824;27;102447;-65
2022/10/30 08:53:10;;;;;;;9.03;3.83;;;;;;;16.36;100.00;96813.00;5070251;27;104852;-65
2022/10/30 08:55:37;;;;;;;7.53;3.77;;;;;;;16.58;100.00;96803.50;5070937;27;101955;-65
2022/10/30 08:58:09;;;;;;;6.03;3.23;;;;;;;16.76;100.00;96802.84;5070965;27;104553;-65
2022/10/30 09:00:37;;;;;;;7.37;3.43;;;;;;;16.86;100.00;96800.09;5069756;27;104852;-65
2022/10/30 09:03:27;;;;;;;6.97;3.33;;;;;;;16.96;100.00;96791.94;5068974;27;102361;-65
2022/10/30 09:06:15;;;;;;;10.30;3.40;;;;;;;17.06;100.00;96788.41;5052009;27;101997;-65
2022/10/30 09:09:02;;;;;;;8.03;3.20;;;;;;;17.37;100.00;96789.72;5051857;27;103882;-65
2022/10/30 09:11:40;;;;;;;6.33;3.37;;;;;;;17.50;100.00;96786.41;5067576;27;101997;-65
2022/10/30 09:14:08;;;;;;;5.83;3.40;;;;;;;17.65;100.00;96791.66;5053055;27;104818;-65
2022/10/30 09:16:35;;;;;;;7.07;3.40;;;;;;;17.72;100.00;96794.78;5050211;27;101903;-65
2022/10/30 09:19:03;;;;;;;8.03;3.43;;;;;;;17.95;100.00;96791.31;5067207;27;105129;-65
2022/10/30 09:21:31;;;;;;;5.30;3.30;;;;;;;17.80;100.00;96783.41;5066636;27;104982;-65
2022/10/30 09:23:59;;;;;;;8.83;3.30;;;;;;;18.02;100.00;96780.97;5050355;27;101938;-65
2022/10/30 09:26:36;;;;;;;5.97;3.03;;;;;;;17.91;100.00;96785.69;5048319;27;102337;-65
2022/10/30 09:29:38;;;;;;;7.27;2.97;;;;;;;18.02;100.00;96786.38;5035294;27;103126;-65
2022/10/30 09:32:15;;;;;;;6.80;3.10;;;;;;;18.18;100.00;96795.84;5067342;27;101884;-65
2022/10/30 09:34:53;;;;;;;9.70;3.37;;;;;;;18.35;100.00;96780.06;5069924;27;105189;-65
2022/10/30 09:37:35;;;;;;;7.83;3.00;;;;;;;18.34;100.00;96789.22;5049990;27;102082;-65
2022/10/30 09:40:03;;;;;;;7.60;3.00;;;;;;;18.66;100.00;96787.44;5049703;27;105359;-65
2022/10/30 09:42:44;;;;;;;7.83;3.07;;;;;;;18.77;100.00;96788.09;5066297;27;105179;-65
2022/10/30 09:45:44;;;;;;;6.93;2.93;;;;;;;18.94;100.00;96785.66;5067002;27;101875;-65
2022/10/30 09:48:31;;;;;;;6.93;3.07;;;;;;;19.14;100.00;96783.44;5049680;27;105157;-65
2022/10/30 09:51:18;;;;;;;7.63;3.77;;;;;;;19.38;100.00;96791.44;5049016;27;105601;-65
2022/10/30 09:54:07;;;;;;;7.10;3.30;;;;;;;19.23;100.00;96787.09;5049859;27;102026;-65
2022/10/30 09:56:45;;;;;;;11.30;3.00;;;;;;;19.34;100.00;96785.06;5049635;27;105018;-65
2022/10/30 09:59:26;;;;;;;6.27;2.50;;;;;;;19.48;100.00;96785.88;5051812;27;105017;-65
2022/10/30 10:02:00;;;;;;;5.97;2.83;;;;;;;19.58;100.00;96783.81;5049780;27;104964;-65
2022/10/30 10:04:40;;;;;;;9.20;2.90;;;;;;;19.76;100.00;96792.91;5065961;27;105232;-65
2022/10/30 10:07:33;;;;;;;5.43;2.63;;;;;;;19.86;100.00;96785.44;5067008;27;102100;-65
2022/10/30 10:10:16;;;;;;;6.70;2.60;;;;;;;20.21;100.00;96782.06;5066649;27;105335;-65
2022/10/30 10:12:52;;;;;;;8.13;2.63;;;;;;;20.10;100.00;96785.28;5048627;27;105134;-65
2022/10/30 10:15:31;;;;;;;8.43;3.00;;;;;;;19.77;100.00;96775.59;5051039;27;102203;-65
2022/10/30 10:18:00;;;;;;;7.73;2.57;;;;;;;20.19;100.00;96780.75;5049576;27;104846;-65
2022/10/30 10:20:33;;;;;;;6.87;2.90;;;;;;;20.51;100.00;96784.13;5065588;27;105710;-65
2022/10/30 10:23:06;;;;;;;8.63;2.80;;;;;;;20.52;100.00;96780.31;5069682;27;101895;-65
2022/10/30 10:25:37;;;;;;;9.03;3.00;;;;;;;20.32;100.00;96771.84;5055838;27;102717;-65
2022/10/30 10:28:16;;;;;;;8.00;2.57;;;;;;;20.59;100.00;96786.09;5049075;27;101786;-65
2022/10/30 10:30:51;;;;;;;9.07;2.73;;;;;;;21.16;100.00;96784.53;5049171;27;105079;-65
2022/10/30 10:33:41;;;;;;;7.37;2.30;;;;;;;21.14;100.00;96775.94;5048486;27;105742;-65
2022/10/30 10:36:27;;;;;;;5.80;2.47;;;;;;;20.78;100.00;96778.66;5049190;27;102280;-65
2022/10/30 10:39:07;;;;;;;6.00;2.63;;;;;;;21.21;100.00;96773.59;5048997;27;105366;-65
2022/10/30 10:41:52;;;;;;;7.33;2.60;;;;;;;21.36;100.00;96770.53;5052933;27;103855;-65
2022/10/30 10:44:33;;;;;;;8.23;2.80;;;;;;;21.28;100.00;96765.84;5060900;27;102996;-65
2022/10/30 10:47:18;;;;;;;7.20;2.70;;;;;;;21.12;100.00;96764.63;5073407;27;102786;-65
2022/10/30 10:49:58;;;;;;;6.43;2.47;;;;;;;21.25;100.00;96761.84;5068758;27;101968;-65
2022/10/30 10:52:39;;;;;;;7.17;2.77;;;;;;;21.74;100.00;96766.31;5068939;27;105009;-65
2022/10/30 10:55:13;;;;;;;8.37;2.60;;;;;;;21.38;100.00;96760.19;5068298;27;105410;-65
2022/10/30 10:57:44;;;;;;;9.20;2.53;;;;;;;21.32;100.00;96754.09;5068728;27;102050;-65
2022/10/30 11:00:15;;;;;;;7.73;2.87;;;;;;;21.63;100.00;96759.53;5068759;27;103616;-65
2022/10/30 11:02:49;;;;;;;8.30;3.30;;;;;;;21.68;100.00;96754.78;5070075;27;102748;-65
2022/10/30 11:05:27;;;;;;;6.47;2.83;;;;;;;21.98;100.00;96750.47;5068634;27;101896;-65
2022/10/30 11:07:59;;;;;;;5.60;2.50;;;;;;;22.23;100.00;96744.31;5068828;27;105577;-65
2022/10/30 11:10:26;;;;;;;8.07;2.83;;;;;;;22.40;100.00;96747.06;5072366;27;105480;-65
2022/10/30 11:12:55;;;;;;;7.60;2.53;;;;;;;22.32;100.00;96742.41;5072471;27;103638;-65
2022/10/30 11:15:34;;;;;;;7.23;2.50;;;;;;;22.38;100.00;96743.84;5071492;27;105068;-65
2022/10/30 11:18:04;;;;;;;6.67;2.90;;;;;;;22.52;100.00;96739.94;5072436;27;102008;-65
2022/10/30 11:20:38;;;;;;;8.80;2.40;;;;;;;22.49;100.00;96740.56;5071931;27;105300;-65
2022/10/30 11:23:37;;;;;;;7.50;2.40;;;;;;;23.00;100.00;96737.09;5071284;27;105669;-65
2022/10/30 11:26:05;;;;;;;5.03;2.50;;;;;;;23.16;100.00;96743.59;5069010;27;103483;-65
2022/10/30 11:28:42;;;;;;;6.07;2.60;;;;;;;23.52;100.00;96741.31;5066149;27;104995;-65
2022/10/30 11:31:26;;;;;;;5.13;2.67;;;;;;;23.34;100.00;96739.75;5071399;27;105451;-65
2022/10/30 11:33:54;;;;;;;7.17;2.40;;;;;;;23.65;100.00;96741.09;5075324;27;101865;-65
2022/10/30 11:36:24;;;;;;;8.57;2.47;;;;;;;23.75;100.00;96734.53;5071537;27;105435;-65
2022/10/30 11:38:58;;;;;;;6.00;2.47;;;;;;;24.06;94.09;96738.59;5072031;27;101749;-65
2022/10/30 11:41:26;;;;;;;8.30;2.67;;;;;;;24.30;97.28;96732.53;5072352;27;104919;-65
2022/10/30 11:43:54;;;;;;;7.20;2.57;;;;;;;24.07;94.25;96740.16;5071604;27;105421;-65
2022/10/30 11:46:23;;;;;;;6.40;2.30;;;;;;;24.15;80.34;96724.94;5072009;27;101913;-65
2022/10/30 11:48:54;;;;;;;7.93;2.63;;;;;;;24.08;95.10;96730.13;5072625;27;102423;-65